sensor_id;sensor_type;location;lat;lon;timestamp;P1;durP1;ratioP1;P2;durP2;ratioP2
5339;SDS011;2692;48.848;8.924;2023-08-06T00:00:44;2.60;;;1.13;;
5339;SDS011;2692;48.848;8.924;2023-08-06T00:03:09;2.53;;;1.07;;
5339;SDS011;2692;48.848;8.924;2023-08-06T00:05:34;1.60;;;1.00;;
5339;SDS011;2692;48.848;8.924;2023-08-06T00:08:00;5.73;;;1.10;;
5339;SDS011;2692;48.848;8.924;2023-08-06T00:10:25;3.17;;;1.00;;
5339;SDS011;2692;48.848;8.924;2023-08-06T00:12:50;1.57;;;0.70;;
5339;SDS011;2692;48.848;8.924;2023-08-06T00:15:16;1.97;;;0.93;;
5339;SDS011;2692;48.848;8.924;2023-08-06T00:17:41;1.73;;;1.10;;
5339;SDS011;2692;48.848;8.924;2023-08-06T00:20:06;1.50;;;0.70;;
5339;SDS011;2692;48.848;8.924;2023-08-06T00:22:33;1.60;;;0.80;;
5339;SDS011;2692;48.848;8.924;2023-08-06T00:24:58;1.50;;;0.83;;
5339;SDS011;2692;48.848;8.924;2023-08-06T00:27:23;1.80;;;0.90;;
5339;SDS011;2692;48.848;8.924;2023-08-06T00:29:49;56.93;;;1.43;;
5339;SDS011;2692;48.848;8.924;2023-08-06T00:32:14;2.90;;;0.93;;
5339;SDS011;2692;48.848;8.924;2023-08-06T00:34:40;1.77;;;0.77;;
5339;SDS011;2692;48.848;8.924;2023-08-06T00:37:05;1.10;;;0.50;;
5339;SDS011;2692;48.848;8.924;2023-08-06T00:39:30;1.60;;;0.93;;
5339;SDS011;2692;48.848;8.924;2023-08-06T00:41:55;1.27;;;0.70;;
5339;SDS011;2692;48.848;8.924;2023-08-06T00:44:21;1.00;;;0.40;;
5339;SDS011;2692;48.848;8.924;2023-08-06T00:46:46;1.43;;;0.90;;
5339;SDS011;2692;48.848;8.924;2023-08-06T00:49:12;2.50;;;0.87;;
5339;SDS011;2692;48.848;8.924;2023-08-06T00:51:37;1.33;;;0.63;;
5339;SDS011;2692;48.848;8.924;2023-08-06T00:54:02;2.00;;;0.83;;
5339;SDS011;2692;48.848;8.924;2023-08-06T00:56:28;1.83;;;0.70;;
5339;SDS011;2692;48.848;8.924;2023-08-06T00:58:53;1.90;;;1.10;;
5339;SDS011;2692;48.848;8.924;2023-08-06T01:01:19;1.80;;;0.97;;
5339;SDS011;2692;48.848;8.924;2023-08-06T01:03:44;1.20;;;0.70;;
5339;SDS011;2692;48.848;8.924;2023-08-06T01:06:09;1.33;;;0.80;;
5339;SDS011;2692;48.848;8.924;2023-08-06T01:11:31;1.00;;;0.50;;
5339;SDS011;2692;48.848;8.924;2023-08-06T01:14:07;1.97;;;0.90;;
5339;SDS011;2692;48.848;8.924;2023-08-06T01:16:38;2.10;;;0.80;;
5339;SDS011;2692;48.848;8.924;2023-08-06T01:19:04;1.63;;;0.57;;
5339;SDS011;2692;48.848;8.924;2023-08-06T01:21:30;2.03;;;1.20;;
5339;SDS011;2692;48.848;8.924;2023-08-06T01:23:55;4.40;;;0.93;;
5339;SDS011;2692;48.848;8.924;2023-08-06T01:31:32;1.93;;;0.63;;
5339;SDS011;2692;48.848;8.924;2023-08-06T01:34:00;1.30;;;0.70;;
5339;SDS011;2692;48.848;8.924;2023-08-06T01:36:26;2.23;;;1.00;;
5339;SDS011;2692;48.848;8.924;2023-08-06T01:38:52;2.70;;;1.13;;
5339;SDS011;2692;48.848;8.924;2023-08-06T01:41:18;1.27;;;0.83;;
5339;SDS011;2692;48.848;8.924;2023-08-06T01:43:43;1.27;;;0.70;;
5339;SDS011;2692;48.848;8.924;2023-08-06T01:46:09;1.20;;;0.67;;
5339;SDS011;2692;48.848;8.924;2023-08-06T01:48:34;1.50;;;0.73;;
5339;SDS011;2692;48.848;8.924;2023-08-06T01:50:59;1.20;;;0.70;;
5339;SDS011;2692;48.848;8.924;2023-08-06T01:53:25;2.43;;;1.37;;
5339;SDS011;2692;48.848;8.924;2023-08-06T01:55:50;3.73;;;1.43;;
5339;SDS011;2692;48.848;8.924;2023-08-06T01:58:15;1.37;;;0.60;;
5339;SDS011;2692;48.848;8.924;2023-08-06T02:00:41;2.10;;;0.90;;
5339;SDS011;2692;48.848;8.924;2023-08-06T02:03:06;1.10;;;0.77;;
5339;SDS011;2692;48.848;8.924;2023-08-06T02:05:31;2.60;;;0.73;;
5339;SDS011;2692;48.848;8.924;2023-08-06T02:07:57;1.33;;;0.50;;
5339;SDS011;2692;48.848;8.924;2023-08-06T02:10:22;11.10;;;1.33;;
5339;SDS011;2692;48.848;8.924;2023-08-06T02:12:47;1.57;;;0.70;;
5339;SDS011;2692;48.848;8.924;2023-08-06T02:15:13;2.53;;;0.93;;
5339;SDS011;2692;48.848;8.924;2023-08-06T02:17:38;3.27;;;0.90;;
5339;SDS011;2692;48.848;8.924;2023-08-06T02:20:03;1.30;;;0.70;;
5339;SDS011;2692;48.848;8.924;2023-08-06T02:22:29;2.73;;;1.40;;
5339;SDS011;2692;48.848;8.924;2023-08-06T02:24:54;2.40;;;1.50;;
5339;SDS011;2692;48.848;8.924;2023-08-06T02:27:20;2.20;;;1.03;;
5339;SDS011;2692;48.848;8.924;2023-08-06T02:29:45;3.10;;;1.10;;
5339;SDS011;2692;48.848;8.924;2023-08-06T02:32:10;1.90;;;0.93;;
5339;SDS011;2692;48.848;8.924;2023-08-06T02:34:36;2.20;;;1.13;;
5339;SDS011;2692;48.848;8.924;2023-08-06T02:37:01;3.63;;;0.80;;
5339;SDS011;2692;48.848;8.924;2023-08-06T02:39:26;1.77;;;1.03;;
5339;SDS011;2692;48.848;8.924;2023-08-06T02:41:51;1.57;;;0.80;;
5339;SDS011;2692;48.848;8.924;2023-08-06T02:44:17;1.53;;;0.90;;
5339;SDS011;2692;48.848;8.924;2023-08-06T02:46:43;1.47;;;0.63;;
5339;SDS011;2692;48.848;8.924;2023-08-06T02:49:09;1.57;;;1.00;;
5339;SDS011;2692;48.848;8.924;2023-08-06T02:51:34;1.13;;;0.70;;
5339;SDS011;2692;48.848;8.924;2023-08-06T02:54:00;1.30;;;0.70;;
5339;SDS011;2692;48.848;8.924;2023-08-06T02:56:25;1.97;;;0.80;;
5339;SDS011;2692;48.848;8.924;2023-08-06T02:58:51;1.53;;;0.70;;
5339;SDS011;2692;48.848;8.924;2023-08-06T03:01:16;5.00;;;1.20;;
5339;SDS011;2692;48.848;8.924;2023-08-06T03:03:41;1.60;;;1.07;;
5339;SDS011;2692;48.848;8.924;2023-08-06T03:06:07;1.17;;;0.70;;
5339;SDS011;2692;48.848;8.924;2023-08-06T03:08:32;3.23;;;1.43;;
5339;SDS011;2692;48.848;8.924;2023-08-06T03:10:57;1.40;;;0.70;;
5339;SDS011;2692;48.848;8.924;2023-08-06T03:13:23;1.27;;;0.83;;
5339;SDS011;2692;48.848;8.924;2023-08-06T03:15:55;2.53;;;1.00;;
5339;SDS011;2692;48.848;8.924;2023-08-06T03:18:21;3.83;;;1.73;;
5339;SDS011;2692;48.848;8.924;2023-08-06T03:20:47;1.43;;;0.80;;
5339;SDS011;2692;48.848;8.924;2023-08-06T03:23:12;1.47;;;0.70;;
5339;SDS011;2692;48.848;8.924;2023-08-06T03:25:37;1.40;;;0.70;;
5339;SDS011;2692;48.848;8.924;2023-08-06T03:28:02;2.10;;;1.07;;
5339;SDS011;2692;48.848;8.924;2023-08-06T03:30:28;2.33;;;1.00;;
5339;SDS011;2692;48.848;8.924;2023-08-06T03:32:53;3.13;;;0.70;;
5339;SDS011;2692;48.848;8.924;2023-08-06T03:35:18;1.90;;;0.73;;
5339;SDS011;2692;48.848;8.924;2023-08-06T03:37:44;1.87;;;0.97;;
5339;SDS011;2692;48.848;8.924;2023-08-06T03:40:09;2.20;;;1.00;;
5339;SDS011;2692;48.848;8.924;2023-08-06T03:42:35;1.00;;;0.60;;
5339;SDS011;2692;48.848;8.924;2023-08-06T03:45:00;2.13;;;0.93;;
5339;SDS011;2692;48.848;8.924;2023-08-06T03:47:25;2.23;;;1.27;;
5339;SDS011;2692;48.848;8.924;2023-08-06T03:49:51;1.60;;;0.80;;
5339;SDS011;2692;48.848;8.924;2023-08-06T03:52:16;1.30;;;0.80;;
5339;SDS011;2692;48.848;8.924;2023-08-06T03:54:41;1.60;;;0.90;;
5339;SDS011;2692;48.848;8.924;2023-08-06T03:57:08;1.00;;;0.60;;
5339;SDS011;2692;48.848;8.924;2023-08-06T03:59:33;1.60;;;0.70;;
5339;SDS011;2692;48.848;8.924;2023-08-06T04:01:58;1.93;;;0.80;;
5339;SDS011;2692;48.848;8.924;2023-08-06T04:04:24;2.63;;;0.97;;
5339;SDS011;2692;48.848;8.924;2023-08-06T04:06:49;2.03;;;0.60;;
5339;SDS011;2692;48.848;8.924;2023-08-06T04:09:14;2.37;;;1.20;;
5339;SDS011;2692;48.848;8.924;2023-08-06T04:11:40;1.60;;;0.70;;
5339;SDS011;2692;48.848;8.924;2023-08-06T04:14:05;1.60;;;0.80;;
5339;SDS011;2692;48.848;8.924;2023-08-06T04:16:30;1.73;;;0.90;;
5339;SDS011;2692;48.848;8.924;2023-08-06T04:18:55;1.47;;;0.77;;
5339;SDS011;2692;48.848;8.924;2023-08-06T04:21:21;1.20;;;0.70;;
5339;SDS011;2692;48.848;8.924;2023-08-06T04:23:46;1.30;;;0.63;;
5339;SDS011;2692;48.848;8.924;2023-08-06T04:26:11;4.67;;;1.00;;
5339;SDS011;2692;48.848;8.924;2023-08-06T04:28:37;1.93;;;0.70;;
5339;SDS011;2692;48.848;8.924;2023-08-06T04:31:02;1.00;;;0.30;;
5339;SDS011;2692;48.848;8.924;2023-08-06T04:33:27;1.20;;;0.63;;
5339;SDS011;2692;48.848;8.924;2023-08-06T04:35:55;1.43;;;0.60;;
5339;SDS011;2692;48.848;8.924;2023-08-06T04:38:22;1.10;;;0.50;;
5339;SDS011;2692;48.848;8.924;2023-08-06T04:40:48;1.47;;;0.50;;
5339;SDS011;2692;48.848;8.924;2023-08-06T04:43:14;1.00;;;0.40;;
5339;SDS011;2692;48.848;8.924;2023-08-06T04:45:45;1.30;;;0.70;;
5339;SDS011;2692;48.848;8.924;2023-08-06T04:48:16;1.00;;;0.40;;
5339;SDS011;2692;48.848;8.924;2023-08-06T04:50:45;1.40;;;0.50;;
5339;SDS011;2692;48.848;8.924;2023-08-06T04:53:11;1.13;;;0.37;;
5339;SDS011;2692;48.848;8.924;2023-08-06T04:55:36;1.40;;;0.50;;
5339;SDS011;2692;48.848;8.924;2023-08-06T04:58:02;1.00;;;0.40;;
5339;SDS011;2692;48.848;8.924;2023-08-06T05:00:27;0.90;;;0.30;;
5339;SDS011;2692;48.848;8.924;2023-08-06T05:02:52;2.03;;;0.70;;
5339;SDS011;2692;48.848;8.924;2023-08-06T05:05:18;1.27;;;0.40;;
5339;SDS011;2692;48.848;8.924;2023-08-06T05:07:43;0.90;;;0.40;;
5339;SDS011;2692;48.848;8.924;2023-08-06T05:10:08;1.20;;;0.53;;
5339;SDS011;2692;48.848;8.924;2023-08-06T05:12:34;0.90;;;0.30;;
5339;SDS011;2692;48.848;8.924;2023-08-06T05:14:59;1.90;;;0.80;;
5339;SDS011;2692;48.848;8.924;2023-08-06T05:17:24;1.60;;;0.60;;
5339;SDS011;2692;48.848;8.924;2023-08-06T05:19:49;1.00;;;0.30;;
5339;SDS011;2692;48.848;8.924;2023-08-06T05:22:15;15.60;;;0.60;;
5339;SDS011;2692;48.848;8.924;2023-08-06T05:24:40;0.90;;;0.40;;
5339;SDS011;2692;48.848;8.924;2023-08-06T05:27:06;0.97;;;0.37;;
5339;SDS011;2692;48.848;8.924;2023-08-06T05:29:31;1.23;;;0.40;;
5339;SDS011;2692;48.848;8.924;2023-08-06T05:31:56;2.40;;;0.60;;
5339;SDS011;2692;48.848;8.924;2023-08-06T05:34:21;1.67;;;0.60;;
5339;SDS011;2692;48.848;8.924;2023-08-06T05:36:47;1.10;;;0.30;;
5339;SDS011;2692;48.848;8.924;2023-08-06T05:39:12;2.27;;;0.60;;
5339;SDS011;2692;48.848;8.924;2023-08-06T05:41:37;1.00;;;0.30;;
5339;SDS011;2692;48.848;8.924;2023-08-06T05:44:03;0.90;;;0.30;;
5339;SDS011;2692;48.848;8.924;2023-08-06T05:46:28;2.90;;;0.50;;
5339;SDS011;2692;48.848;8.924;2023-08-06T05:48:53;2.60;;;0.50;;
5339;SDS011;2692;48.848;8.924;2023-08-06T05:51:18;0.97;;;0.37;;
5339;SDS011;2692;48.848;8.924;2023-08-06T05:53:44;1.13;;;0.50;;
5339;SDS011;2692;48.848;8.924;2023-08-06T05:56:10;0.90;;;0.30;;
5339;SDS011;2692;48.848;8.924;2023-08-06T05:58:36;0.90;;;0.33;;
5339;SDS011;2692;48.848;8.924;2023-08-06T06:01:01;1.43;;;0.40;;
5339;SDS011;2692;48.848;8.924;2023-08-06T06:03:26;1.00;;;0.37;;
5339;SDS011;2692;48.848;8.924;2023-08-06T06:05:51;1.20;;;0.50;;
5339;SDS011;2692;48.848;8.924;2023-08-06T06:08:17;0.90;;;0.37;;
5339;SDS011;2692;48.848;8.924;2023-08-06T06:10:42;2.17;;;0.80;;
5339;SDS011;2692;48.848;8.924;2023-08-06T06:13:07;0.90;;;0.40;;
5339;SDS011;2692;48.848;8.924;2023-08-06T06:15:33;0.90;;;0.30;;
5339;SDS011;2692;48.848;8.924;2023-08-06T06:17:58;2.23;;;0.57;;
5339;SDS011;2692;48.848;8.924;2023-08-06T06:20:23;0.90;;;0.30;;
5339;SDS011;2692;48.848;8.924;2023-08-06T06:22:49;0.90;;;0.30;;
5339;SDS011;2692;48.848;8.924;2023-08-06T06:25:14;1.10;;;0.50;;
5339;SDS011;2692;48.848;8.924;2023-08-06T06:27:39;0.90;;;0.30;;
5339;SDS011;2692;48.848;8.924;2023-08-06T06:30:05;1.17;;;0.60;;
5339;SDS011;2692;48.848;8.924;2023-08-06T06:32:30;1.30;;;0.47;;
5339;SDS011;2692;48.848;8.924;2023-08-06T06:34:56;1.17;;;0.50;;
5339;SDS011;2692;48.848;8.924;2023-08-06T06:37:21;0.90;;;0.30;;
5339;SDS011;2692;48.848;8.924;2023-08-06T06:39:47;1.20;;;0.40;;
5339;SDS011;2692;48.848;8.924;2023-08-06T06:42:13;0.90;;;0.30;;
5339;SDS011;2692;48.848;8.924;2023-08-06T06:44:40;3.17;;;0.53;;
5339;SDS011;2692;48.848;8.924;2023-08-06T06:47:05;0.90;;;0.30;;
5339;SDS011;2692;48.848;8.924;2023-08-06T06:49:30;0.90;;;0.30;;
5339;SDS011;2692;48.848;8.924;2023-08-06T06:51:55;3.63;;;0.50;;
5339;SDS011;2692;48.848;8.924;2023-08-06T06:54:21;1.10;;;0.30;;
5339;SDS011;2692;48.848;8.924;2023-08-06T06:56:46;1.00;;;0.37;;
5339;SDS011;2692;48.848;8.924;2023-08-06T06:59:11;0.90;;;0.20;;
5339;SDS011;2692;48.848;8.924;2023-08-06T07:01:36;0.87;;;0.20;;
5339;SDS011;2692;48.848;8.924;2023-08-06T07:04:02;0.90;;;0.30;;
5339;SDS011;2692;48.848;8.924;2023-08-06T07:06:29;1.00;;;0.30;;
5339;SDS011;2692;48.848;8.924;2023-08-06T07:08:55;0.90;;;0.30;;
5339;SDS011;2692;48.848;8.924;2023-08-06T07:11:20;0.90;;;0.30;;
5339;SDS011;2692;48.848;8.924;2023-08-06T07:13:46;2.20;;;0.53;;
5339;SDS011;2692;48.848;8.924;2023-08-06T07:16:11;1.53;;;0.30;;
5339;SDS011;2692;48.848;8.924;2023-08-06T07:18:36;0.90;;;0.30;;
5339;SDS011;2692;48.848;8.924;2023-08-06T07:21:01;1.10;;;0.37;;
5339;SDS011;2692;48.848;8.924;2023-08-06T07:23:27;1.20;;;0.60;;
5339;SDS011;2692;48.848;8.924;2023-08-06T07:25:52;3.70;;;1.13;;
5339;SDS011;2692;48.848;8.924;2023-08-06T07:28:17;1.00;;;0.33;;
5339;SDS011;2692;48.848;8.924;2023-08-06T07:30:43;0.90;;;0.30;;
5339;SDS011;2692;48.848;8.924;2023-08-06T07:33:09;1.27;;;0.33;;
5339;SDS011;2692;48.848;8.924;2023-08-06T07:35:35;0.90;;;0.20;;
5339;SDS011;2692;48.848;8.924;2023-08-06T07:38:00;0.90;;;0.30;;
5339;SDS011;2692;48.848;8.924;2023-08-06T07:40:26;0.90;;;0.30;;
5339;SDS011;2692;48.848;8.924;2023-08-06T07:42:52;1.00;;;0.30;;
5339;SDS011;2692;48.848;8.924;2023-08-06T07:45:17;0.90;;;0.30;;
5339;SDS011;2692;48.848;8.924;2023-08-06T07:47:43;0.90;;;0.30;;
5339;SDS011;2692;48.848;8.924;2023-08-06T07:50:09;0.90;;;0.30;;
5339;SDS011;2692;48.848;8.924;2023-08-06T07:52:34;0.90;;;0.20;;
5339;SDS011;2692;48.848;8.924;2023-08-06T07:55:00;0.93;;;0.33;;
5339;SDS011;2692;48.848;8.924;2023-08-06T07:57:26;0.90;;;0.20;;
5339;SDS011;2692;48.848;8.924;2023-08-06T07:59:52;0.90;;;0.20;;
5339;SDS011;2692;48.848;8.924;2023-08-06T08:02:18;0.90;;;0.20;;
5339;SDS011;2692;48.848;8.924;2023-08-06T08:04:44;0.90;;;0.20;;
5339;SDS011;2692;48.848;8.924;2023-08-06T08:07:12;0.90;;;0.30;;
5339;SDS011;2692;48.848;8.924;2023-08-06T08:09:37;0.90;;;0.20;;
5339;SDS011;2692;48.848;8.924;2023-08-06T08:12:02;0.90;;;0.30;;
5339;SDS011;2692;48.848;8.924;2023-08-06T08:14:28;0.90;;;0.30;;
5339;SDS011;2692;48.848;8.924;2023-08-06T08:16:54;0.90;;;0.30;;
5339;SDS011;2692;48.848;8.924;2023-08-06T08:19:19;0.90;;;0.20;;
5339;SDS011;2692;48.848;8.924;2023-08-06T08:21:45;0.90;;;0.20;;
5339;SDS011;2692;48.848;8.924;2023-08-06T08:24:10;0.90;;;0.30;;
5339;SDS011;2692;48.848;8.924;2023-08-06T08:26:35;1.00;;;0.30;;
5339;SDS011;2692;48.848;8.924;2023-08-06T08:29:00;0.90;;;0.20;;
5339;SDS011;2692;48.848;8.924;2023-08-06T08:31:26;2.73;;;0.40;;
5339;SDS011;2692;48.848;8.924;2023-08-06T08:33:51;0.90;;;0.20;;
5339;SDS011;2692;48.848;8.924;2023-08-06T08:36:18;0.90;;;0.40;;
5339;SDS011;2692;48.848;8.924;2023-08-06T08:38:43;0.90;;;0.20;;
5339;SDS011;2692;48.848;8.924;2023-08-06T08:41:09;0.90;;;0.20;;
5339;SDS011;2692;48.848;8.924;2023-08-06T08:43:35;0.90;;;0.30;;
5339;SDS011;2692;48.848;8.924;2023-08-06T08:46:00;0.90;;;0.20;;
5339;SDS011;2692;48.848;8.924;2023-08-06T08:48:27;2.17;;;0.80;;
5339;SDS011;2692;48.848;8.924;2023-08-06T08:50:52;1.50;;;0.40;;
5339;SDS011;2692;48.848;8.924;2023-08-06T08:53:18;1.10;;;0.37;;
5339;SDS011;2692;48.848;8.924;2023-08-06T08:55:48;0.90;;;0.20;;
5339;SDS011;2692;48.848;8.924;2023-08-06T08:58:14;0.90;;;0.27;;
5339;SDS011;2692;48.848;8.924;2023-08-06T09:00:43;0.90;;;0.30;;
5339;SDS011;2692;48.848;8.924;2023-08-06T09:03:10;1.00;;;0.30;;
5339;SDS011;2692;48.848;8.924;2023-08-06T09:05:36;1.00;;;0.30;;
5339;SDS011;2692;48.848;8.924;2023-08-06T09:08:04;0.90;;;0.20;;
5339;SDS011;2692;48.848;8.924;2023-08-06T09:10:30;0.90;;;0.23;;
5339;SDS011;2692;48.848;8.924;2023-08-06T09:12:56;1.00;;;0.30;;
5339;SDS011;2692;48.848;8.924;2023-08-06T09:15:26;0.90;;;0.20;;
5339;SDS011;2692;48.848;8.924;2023-08-06T09:17:52;0.90;;;0.20;;
5339;SDS011;2692;48.848;8.924;2023-08-06T09:20:17;0.90;;;0.20;;
5339;SDS011;2692;48.848;8.924;2023-08-06T09:22:43;0.90;;;0.20;;
5339;SDS011;2692;48.848;8.924;2023-08-06T09:25:10;0.90;;;0.30;;
5339;SDS011;2692;48.848;8.924;2023-08-06T09:27:36;0.90;;;0.20;;
5339;SDS011;2692;48.848;8.924;2023-08-06T09:30:02;0.90;;;0.30;;
5339;SDS011;2692;48.848;8.924;2023-08-06T09:32:38;0.90;;;0.30;;
5339;SDS011;2692;48.848;8.924;2023-08-06T09:35:10;0.90;;;0.20;;
5339;SDS011;2692;48.848;8.924;2023-08-06T09:37:40;0.90;;;0.30;;
5339;SDS011;2692;48.848;8.924;2023-08-06T09:40:20;0.90;;;0.30;;
5339;SDS011;2692;48.848;8.924;2023-08-06T09:42:51;1.10;;;0.20;;
5339;SDS011;2692;48.848;8.924;2023-08-06T09:45:16;1.10;;;0.30;;
5339;SDS011;2692;48.848;8.924;2023-08-06T09:47:41;0.90;;;0.27;;
5339;SDS011;2692;48.848;8.924;2023-08-06T09:50:14;0.90;;;0.30;;
5339;SDS011;2692;48.848;8.924;2023-08-06T09:52:43;1.00;;;0.30;;
5339;SDS011;2692;48.848;8.924;2023-08-06T09:55:10;1.00;;;0.30;;
5339;SDS011;2692;48.848;8.924;2023-08-06T09:57:37;0.90;;;0.30;;
5339;SDS011;2692;48.848;8.924;2023-08-06T10:00:02;0.90;;;0.30;;
5339;SDS011;2692;48.848;8.924;2023-08-06T10:02:28;0.90;;;0.23;;
5339;SDS011;2692;48.848;8.924;2023-08-06T10:04:53;0.90;;;0.30;;
5339;SDS011;2692;48.848;8.924;2023-08-06T10:07:20;0.90;;;0.30;;
5339;SDS011;2692;48.848;8.924;2023-08-06T10:09:47;0.90;;;0.30;;
5339;SDS011;2692;48.848;8.924;2023-08-06T10:12:12;0.90;;;0.20;;
5339;SDS011;2692;48.848;8.924;2023-08-06T10:14:38;0.90;;;0.30;;
5339;SDS011;2692;48.848;8.924;2023-08-06T10:17:04;0.90;;;0.20;;
5339;SDS011;2692;48.848;8.924;2023-08-06T10:19:30;0.90;;;0.30;;
5339;SDS011;2692;48.848;8.924;2023-08-06T10:22:14;0.90;;;0.30;;
5339;SDS011;2692;48.848;8.924;2023-08-06T10:24:54;0.90;;;0.30;;
5339;SDS011;2692;48.848;8.924;2023-08-06T10:27:21;0.90;;;0.30;;
5339;SDS011;2692;48.848;8.924;2023-08-06T10:29:48;0.90;;;0.30;;
5339;SDS011;2692;48.848;8.924;2023-08-06T10:32:15;0.90;;;0.30;;
5339;SDS011;2692;48.848;8.924;2023-08-06T10:34:59;1.17;;;0.40;;
5339;SDS011;2692;48.848;8.924;2023-08-06T10:37:35;0.90;;;0.30;;
5339;SDS011;2692;48.848;8.924;2023-08-06T10:40:01;0.90;;;0.30;;
5339;SDS011;2692;48.848;8.924;2023-08-06T10:42:27;0.90;;;0.20;;
5339;SDS011;2692;48.848;8.924;2023-08-06T10:45:11;0.90;;;0.30;;
5339;SDS011;2692;48.848;8.924;2023-08-06T10:47:38;0.90;;;0.30;;
5339;SDS011;2692;48.848;8.924;2023-08-06T10:50:04;1.83;;;0.30;;
5339;SDS011;2692;48.848;8.924;2023-08-06T10:52:35;0.90;;;0.30;;
5339;SDS011;2692;48.848;8.924;2023-08-06T10:55:00;0.90;;;0.30;;
5339;SDS011;2692;48.848;8.924;2023-08-06T10:57:26;1.43;;;0.40;;
5339;SDS011;2692;48.848;8.924;2023-08-06T10:59:51;2.37;;;0.70;;
5339;SDS011;2692;48.848;8.924;2023-08-06T11:02:16;0.90;;;0.30;;
5339;SDS011;2692;48.848;8.924;2023-08-06T11:04:42;0.90;;;0.30;;
5339;SDS011;2692;48.848;8.924;2023-08-06T11:07:07;1.30;;;0.40;;
5339;SDS011;2692;48.848;8.924;2023-08-06T11:09:33;1.37;;;0.40;;
5339;SDS011;2692;48.848;8.924;2023-08-06T11:11:58;2.50;;;0.80;;
5339;SDS011;2692;48.848;8.924;2023-08-06T11:14:23;0.90;;;0.30;;
5339;SDS011;2692;48.848;8.924;2023-08-06T11:16:48;0.90;;;0.30;;
5339;SDS011;2692;48.848;8.924;2023-08-06T11:19:15;1.40;;;0.50;;
5339;SDS011;2692;48.848;8.924;2023-08-06T11:21:41;1.13;;;0.67;;
5339;SDS011;2692;48.848;8.924;2023-08-06T11:24:09;1.07;;;0.47;;
5339;SDS011;2692;48.848;8.924;2023-08-06T11:26:36;2.10;;;0.80;;
5339;SDS011;2692;48.848;8.924;2023-08-06T11:29:02;1.60;;;0.77;;
5339;SDS011;2692;48.848;8.924;2023-08-06T11:31:28;0.97;;;0.40;;
5339;SDS011;2692;48.848;8.924;2023-08-06T11:33:53;1.50;;;0.50;;
5339;SDS011;2692;48.848;8.924;2023-08-06T11:36:29;1.00;;;0.40;;
5339;SDS011;2692;48.848;8.924;2023-08-06T11:39:01;1.57;;;0.77;;
5339;SDS011;2692;48.848;8.924;2023-08-06T11:41:28;1.37;;;0.63;;
5339;SDS011;2692;48.848;8.924;2023-08-06T11:43:53;1.47;;;0.60;;
5339;SDS011;2692;48.848;8.924;2023-08-06T11:46:19;1.20;;;0.60;;
5339;SDS011;2692;48.848;8.924;2023-08-06T11:48:51;1.10;;;0.60;;
5339;SDS011;2692;48.848;8.924;2023-08-06T11:51:23;0.90;;;0.40;;
5339;SDS011;2692;48.848;8.924;2023-08-06T11:53:54;5.23;;;0.60;;
5339;SDS011;2692;48.848;8.924;2023-08-06T11:56:20;1.20;;;0.60;;
5339;SDS011;2692;48.848;8.924;2023-08-06T11:58:46;2.03;;;1.00;;
5339;SDS011;2692;48.848;8.924;2023-08-06T12:01:11;2.30;;;0.70;;
5339;SDS011;2692;48.848;8.924;2023-08-06T12:03:40;1.30;;;0.80;;
5339;SDS011;2692;48.848;8.924;2023-08-06T12:06:05;1.20;;;0.60;;
5339;SDS011;2692;48.848;8.924;2023-08-06T12:08:32;1.20;;;0.60;;
5339;SDS011;2692;48.848;8.924;2023-08-06T12:10:57;2.87;;;0.70;;
5339;SDS011;2692;48.848;8.924;2023-08-06T12:13:22;1.30;;;0.63;;
5339;SDS011;2692;48.848;8.924;2023-08-06T12:15:48;1.63;;;0.90;;
5339;SDS011;2692;48.848;8.924;2023-08-06T12:18:13;2.03;;;1.03;;
5339;SDS011;2692;48.848;8.924;2023-08-06T12:20:38;1.40;;;0.70;;
5339;SDS011;2692;48.848;8.924;2023-08-06T12:23:04;1.50;;;0.67;;
5339;SDS011;2692;48.848;8.924;2023-08-06T12:25:29;1.77;;;0.83;;
5339;SDS011;2692;48.848;8.924;2023-08-06T12:27:54;2.20;;;0.77;;
5339;SDS011;2692;48.848;8.924;2023-08-06T12:30:20;1.53;;;0.87;;
5339;SDS011;2692;48.848;8.924;2023-08-06T12:32:45;3.00;;;1.23;;
5339;SDS011;2692;48.848;8.924;2023-08-06T12:35:10;1.20;;;0.70;;
5339;SDS011;2692;48.848;8.924;2023-08-06T12:37:36;5.37;;;0.80;;
5339;SDS011;2692;48.848;8.924;2023-08-06T12:40:03;1.47;;;0.50;;
5339;SDS011;2692;48.848;8.924;2023-08-06T12:42:29;1.10;;;0.50;;
5339;SDS011;2692;48.848;8.924;2023-08-06T12:44:54;1.00;;;0.40;;
5339;SDS011;2692;48.848;8.924;2023-08-06T12:47:19;1.10;;;0.50;;
5339;SDS011;2692;48.848;8.924;2023-08-06T12:49:45;1.10;;;0.40;;
5339;SDS011;2692;48.848;8.924;2023-08-06T12:52:10;4.63;;;0.53;;
5339;SDS011;2692;48.848;8.924;2023-08-06T12:54:37;4.80;;;0.60;;
5339;SDS011;2692;48.848;8.924;2023-08-06T12:57:03;1.43;;;0.50;;
5339;SDS011;2692;48.848;8.924;2023-08-06T12:59:29;1.27;;;0.37;;
5339;SDS011;2692;48.848;8.924;2023-08-06T13:01:54;1.10;;;0.40;;
5339;SDS011;2692;48.848;8.924;2023-08-06T13:04:19;1.40;;;0.60;;
5339;SDS011;2692;48.848;8.924;2023-08-06T13:06:45;1.00;;;0.40;;
5339;SDS011;2692;48.848;8.924;2023-08-06T13:09:10;3.97;;;1.17;;
5339;SDS011;2692;48.848;8.924;2023-08-06T13:11:36;1.67;;;0.50;;
5339;SDS011;2692;48.848;8.924;2023-08-06T13:14:09;6.10;;;0.43;;
5339;SDS011;2692;48.848;8.924;2023-08-06T13:16:36;3.43;;;0.63;;
5339;SDS011;2692;48.848;8.924;2023-08-06T13:19:04;1.00;;;0.40;;
5339;SDS011;2692;48.848;8.924;2023-08-06T13:24:14;2.70;;;0.50;;
5339;SDS011;2692;48.848;8.924;2023-08-06T13:26:40;1.60;;;0.50;;
5339;SDS011;2692;48.848;8.924;2023-08-06T13:29:05;1.10;;;0.40;;
5339;SDS011;2692;48.848;8.924;2023-08-06T13:31:32;1.00;;;0.30;;
5339;SDS011;2692;48.848;8.924;2023-08-06T13:33:57;0.90;;;0.30;;
5339;SDS011;2692;48.848;8.924;2023-08-06T13:36:23;1.00;;;0.30;;
5339;SDS011;2692;48.848;8.924;2023-08-06T13:38:48;1.03;;;0.40;;
5339;SDS011;2692;48.848;8.924;2023-08-06T13:41:14;1.10;;;0.30;;
5339;SDS011;2692;48.848;8.924;2023-08-06T13:43:39;1.10;;;0.40;;
5339;SDS011;2692;48.848;8.924;2023-08-06T13:46:05;0.90;;;0.30;;
5339;SDS011;2692;48.848;8.924;2023-08-06T13:48:30;1.00;;;0.40;;
5339;SDS011;2692;48.848;8.924;2023-08-06T13:50:55;0.90;;;0.30;;
5339;SDS011;2692;48.848;8.924;2023-08-06T13:53:21;1.30;;;0.40;;
5339;SDS011;2692;48.848;8.924;2023-08-06T13:55:46;2.40;;;0.50;;
5339;SDS011;2692;48.848;8.924;2023-08-06T13:58:11;1.00;;;0.40;;
5339;SDS011;2692;48.848;8.924;2023-08-06T14:00:36;1.00;;;0.40;;
5339;SDS011;2692;48.848;8.924;2023-08-06T14:03:02;1.40;;;0.40;;
5339;SDS011;2692;48.848;8.924;2023-08-06T14:05:27;1.10;;;0.50;;
5339;SDS011;2692;48.848;8.924;2023-08-06T14:07:52;2.40;;;0.40;;
5339;SDS011;2692;48.848;8.924;2023-08-06T14:10:18;1.00;;;0.40;;
5339;SDS011;2692;48.848;8.924;2023-08-06T14:12:43;1.03;;;0.43;;
5339;SDS011;2692;48.848;8.924;2023-08-06T14:15:08;1.73;;;0.50;;
5339;SDS011;2692;48.848;8.924;2023-08-06T14:17:34;1.40;;;0.60;;
5339;SDS011;2692;48.848;8.924;2023-08-06T14:19:59;1.20;;;0.50;;
5339;SDS011;2692;48.848;8.924;2023-08-06T14:22:25;1.23;;;0.60;;
5339;SDS011;2692;48.848;8.924;2023-08-06T14:24:51;1.53;;;0.50;;
5339;SDS011;2692;48.848;8.924;2023-08-06T14:27:16;1.03;;;0.40;;
5339;SDS011;2692;48.848;8.924;2023-08-06T14:29:41;1.37;;;0.40;;
5339;SDS011;2692;48.848;8.924;2023-08-06T14:32:06;0.90;;;0.30;;
5339;SDS011;2692;48.848;8.924;2023-08-06T14:34:32;1.40;;;0.50;;
5339;SDS011;2692;48.848;8.924;2023-08-06T14:36:57;1.63;;;0.50;;
5339;SDS011;2692;48.848;8.924;2023-08-06T14:39:24;0.90;;;0.30;;
5339;SDS011;2692;48.848;8.924;2023-08-06T14:41:49;1.00;;;0.40;;
5339;SDS011;2692;48.848;8.924;2023-08-06T14:44:14;1.50;;;0.77;;
5339;SDS011;2692;48.848;8.924;2023-08-06T14:46:40;1.00;;;0.40;;
5339;SDS011;2692;48.848;8.924;2023-08-06T14:49:05;1.00;;;0.30;;
5339;SDS011;2692;48.848;8.924;2023-08-06T14:51:30;1.10;;;0.40;;
5339;SDS011;2692;48.848;8.924;2023-08-06T14:53:55;0.90;;;0.47;;
5339;SDS011;2692;48.848;8.924;2023-08-06T14:56:21;1.07;;;0.50;;
5339;SDS011;2692;48.848;8.924;2023-08-06T14:58:46;1.27;;;0.53;;
5339;SDS011;2692;48.848;8.924;2023-08-06T15:01:12;0.90;;;0.30;;
5339;SDS011;2692;48.848;8.924;2023-08-06T15:03:37;2.07;;;0.40;;
5339;SDS011;2692;48.848;8.924;2023-08-06T15:06:03;1.00;;;0.40;;
5339;SDS011;2692;48.848;8.924;2023-08-06T15:08:28;1.00;;;0.60;;
5339;SDS011;2692;48.848;8.924;2023-08-06T15:10:53;1.20;;;0.50;;
5339;SDS011;2692;48.848;8.924;2023-08-06T15:13:19;1.10;;;0.43;;
5339;SDS011;2692;48.848;8.924;2023-08-06T15:15:49;1.07;;;0.50;;
5339;SDS011;2692;48.848;8.924;2023-08-06T15:18:14;1.30;;;0.70;;